Time;durP1;ratioP1;P1;durP2;ratioP2;P2;SDS_P1;SDS_P2;PMS_P1;PMS_P2;Temp;Humidity;BMP_temperature;BMP_pressure;BME280_temperature;BME280_humidity;BME280_pressure;Samples;Min_cycle;Max_cycle;Signal;HPM_P1;HPM_P2
2020/12/21 00:00:01;;;;;;;;;;;16.00;90.80;;;;;;4232111;28;20060;-42
2020/12/21 00:02:32;;;;;;;0.85;0.85;;;15.90;90.80;;;;;;4231615;28;19919;-41
2020/12/21 00:04:53;;;;;;;0.00;0.00;;;15.90;90.80;;;;;;4231323;28;20052;-42
2020/12/21 00:07:17;;;;;;;0.00;0.00;;;15.90;90.70;;;;;;4231391;28;20062;-42
2020/12/21 00:09:40;;;;;;;0.00;0.00;;;15.90;90.80;;;;;;4231222;28;20160;-41
2020/12/21 00:12:05;;;;;;;0.28;0.28;;;15.90;90.90;;;;;;4231724;28;20498;-41
2020/12/21 00:14:27;;;;;;;0.00;0.00;;;15.90;90.90;;;;;;4231733;28;20043;-41
2020/12/21 00:16:49;;;;;;;0.70;0.70;;;15.90;90.90;;;;;;4231628;28;20051;-41
2020/12/21 00:19:11;;;;;;;0.00;0.00;;;15.90;90.90;;;;;;4231076;28;20097;-41
2020/12/21 00:21:32;;;;;;;0.00;0.00;;;15.80;90.90;;;;;;4231322;28;20047;-42
2020/12/21 00:23:53;;;;;;;;;;;15.80;91.00;;;;;;4230348;28;20051;-42
2020/12/21 00:26:14;;;;;;;0.00;0.00;;;15.80;91.00;;;;;;4231128;28;19924;-41
2020/12/21 00:28:34;;;;;;;0.00;0.00;;;15.80;91.10;;;;;;4231825;28;20417;-41
2020/12/21 00:30:56;;;;;;;0.10;0.10;;;15.80;91.00;;;;;;4231268;27;20048;-41
2020/12/21 00:33:32;;;;;;;0.00;0.00;;;15.80;91.00;;;;;;4230752;28;20043;-40
2020/12/21 00:35:55;;;;;;;0.00;0.00;;;15.80;91.00;;;;;;4230991;28;20047;-41
2020/12/21 00:38:17;;;;;;;0.08;0.08;;;15.80;91.00;;;;;;4231045;28;20433;-42
2020/12/21 00:40:38;;;;;;;0.10;0.10;;;15.80;91.10;;;;;;4230933;28;20056;-41
2020/12/21 00:42:59;;;;;;;0.00;0.00;;;15.70;90.90;;;;;;4230558;28;20097;-42
2020/12/21 00:45:20;;;;;;;0.00;0.00;;;15.70;90.90;;;;;;4230917;28;20126;-41
2020/12/21 00:47:44;;;;;;;0.00;0.00;;;15.70;91.00;;;;;;4230848;28;20510;-41
2020/12/21 00:50:05;;;;;;;0.00;0.00;;;15.70;91.10;;;;;;4213350;28;20063;-41
2020/12/21 00:52:26;;;;;;;0.00;0.00;;;15.70;91.00;;;;;;4212903;28;20503;-41
2020/12/21 00:54:47;;;;;;;0.00;0.00;;;15.70;91.10;;;;;;4213856;28;20047;-41
2020/12/21 00:57:11;;;;;;;1.63;1.52;;;15.70;91.10;;;;;;4214397;28;20060;-41
2020/12/21 00:59:33;;;;;;;0.05;0.05;;;15.70;91.10;;;;;;4213844;28;20790;-41
2020/12/21 01:01:54;;;;;;;0.38;0.38;;;15.70;91.10;;;;;;4213752;28;20097;-41
2020/12/21 01:04:16;;;;;;;0.32;0.32;;;15.60;91.10;;;;;;4228049;28;20056;-41
2020/12/21 01:06:37;;;;;;;0.30;0.30;;;15.60;91.20;;;;;;4230518;28;20048;-41
2020/12/21 01:08:59;;;;;;;0.77;0.47;;;15.60;91.10;;;;;;4231166;28;20440;-41
2020/12/21 01:11:23;;;;;;;0.20;0.20;;;15.60;91.20;;;;;;4230858;28;20059;-41
2020/12/21 01:13:47;;;;;;;0.00;0.00;;;15.60;91.20;;;;;;4230189;28;20117;-41
2020/12/21 01:16:08;;;;;;;0.10;0.10;;;15.60;91.20;;;;;;4230399;28;20063;-41
2020/12/21 01:18:28;;;;;;;0.20;0.20;;;15.60;91.20;;;;;;4230298;28;20079;-41
2020/12/21 01:20:50;;;;;;;0.00;0.00;;;15.60;91.30;;;;;;4230983;27;20535;-41
2020/12/21 01:23:11;;;;;;;0.00;0.00;;;15.60;91.40;;;;;;4230445;28;20044;-42
2020/12/21 01:25:32;;;;;;;0.00;0.00;;;15.60;91.30;;;;;;4230282;28;20052;-41
2020/12/21 01:27:55;;;;;;;0.00;0.00;;;15.60;91.40;;;;;;4230096;28;20134;-41
2020/12/21 01:30:16;;;;;;;2.97;1.08;;;15.50;91.40;;;;;;4230680;28;20578;-41
2020/12/21 01:32:37;;;;;;;0.00;0.00;;;15.60;91.40;;;;;;4229704;28;20051;-41
2020/12/21 01:34:58;;;;;;;0.10;0.10;;;15.50;91.40;;;;;;4230218;28;20047;-42
2020/12/21 01:37:20;;;;;;;0.40;0.40;;;15.50;91.40;;;;;;4230377;28;20502;-40
2020/12/21 01:39:48;;;;;;;0.52;0.43;;;15.50;91.40;;;;;;4230019;28;20145;-41
2020/12/21 01:42:09;;;;;;;0.00;0.00;;;15.50;91.50;;;;;;4229998;28;20478;-41
2020/12/21 01:44:29;;;;;;;0.00;0.00;;;15.50;91.50;;;;;;4229949;28;20604;-41
2020/12/21 01:46:50;;;;;;;0.00;0.00;;;15.50;91.60;;;;;;4229864;28;20456;-41
2020/12/21 01:49:11;;;;;;;0.35;0.35;;;15.50;91.60;;;;;;4229914;28;20494;-41
2020/12/21 01:51:32;;;;;;;0.00;0.00;;;15.50;92.00;;;;;;4230167;28;20047;-41
2020/12/21 01:53:55;;;;;;;0.05;0.05;;;15.40;91.60;;;;;;4229206;27;20124;-41
2020/12/21 01:56:20;;;;;;;0.00;0.00;;;15.40;91.70;;;;;;4229649;28;20130;-41
2020/12/21 01:58:41;;;;;;;0.15;0.15;;;15.40;91.70;;;;;;4229207;28;20055;-41
2020/12/21 02:01:04;;;;;;;0.00;0.00;;;15.40;91.80;;;;;;4229306;28;20064;-41
2020/12/21 02:03:25;;;;;;;0.73;0.73;;;15.40;91.80;;;;;;4229497;28;20855;-41
2020/12/21 02:05:46;;;;;;;0.20;0.20;;;15.40;91.80;;;;;;4229715;28;20055;-41
2020/12/21 02:08:07;;;;;;;1.05;1.02;;;15.40;91.80;;;;;;4213284;28;20059;-42
2020/12/21 02:10:31;;;;;;;0.00;0.00;;;15.40;91.80;;;;;;4213280;28;20850;-42
2020/12/21 02:12:51;;;;;;;0.05;0.05;;;15.30;91.80;;;;;;4213053;28;20199;-41
2020/12/21 02:15:12;;;;;;;0.00;0.00;;;15.30;91.90;;;;;;4212671;28;20132;-44
2020/12/21 02:17:33;;;;;;;0.00;0.00;;;15.30;91.90;;;;;;4227001;28;20074;-41
2020/12/21 02:19:53;;;;;;;0.13;0.13;;;15.30;91.90;;;;;;4229715;28;20130;-41
2020/12/21 02:22:17;;;;;;;0.47;0.47;;;15.30;91.90;;;;;;4229682;28;21018;-42
2020/12/21 02:24:42;;;;;;;0.00;0.00;;;15.30;92.00;;;;;;4229313;28;20570;-41
2020/12/21 02:27:03;;;;;;;0.00;0.00;;;15.30;92.00;;;;;;4229124;27;20714;-41
2020/12/21 02:29:24;;;;;;;0.00;0.00;;;15.30;92.10;;;;;;4229894;28;20759;-46
2020/12/21 02:31:45;;;;;;;0.08;0.08;;;15.30;92.10;;;;;;4229785;28;20062;-41
2020/12/21 02:34:06;;;;;;;0.00;0.00;;;15.20;92.10;;;;;;4229134;28;20055;-42
2020/12/21 02:36:27;;;;;;;0.15;0.15;;;15.20;92.10;;;;;;4229213;28;20533;-42
2020/12/21 02:38:49;;;;;;;0.65;0.65;;;15.30;92.20;;;;;;4229198;28;20524;-42
2020/12/21 02:41:14;;;;;;;0.00;0.00;;;15.40;92.10;;;;;;4229056;28;20124;-43
2020/12/21 02:43:35;;;;;;;0.00;0.00;;;15.50;91.90;;;;;;4229331;28;20051;-42
2020/12/21 02:45:56;;;;;;;0.00;0.00;;;15.60;91.70;;;;;;4229134;28;20057;-42
2020/12/21 02:48:17;;;;;;;0.00;0.00;;;15.70;91.50;;;;;;4229282;28;20061;-41
2020/12/21 02:50:38;;;;;;;0.00;0.00;;;15.70;91.40;;;;;;4229602;28;20052;-42
2020/12/21 02:52:59;;;;;;;0.63;0.22;;;15.70;91.30;;;;;;4229269;28;20130;-41
2020/12/21 02:55:20;;;;;;;0.00;0.00;;;15.70;91.30;;;;;;4228978;28;20055;-40
2020/12/21 02:57:41;;;;;;;;;;;15.70;91.20;;;;;;4229843;28;20071;-41
2020/12/21 03:00:05;;;;;;;1.08;0.35;;;15.70;91.30;;;;;;4228939;28;20011;-41
2020/12/21 03:02:25;;;;;;;0.00;0.00;;;15.70;91.30;;;;;;4228860;28;20501;-41
2020/12/21 03:04:59;;;;;;;0.00;0.00;;;15.70;91.30;;;;;;4228949;28;20059;-42
2020/12/21 03:07:20;;;;;;;0.00;0.00;;;15.60;91.40;;;;;;4231374;28;20051;-41
2020/12/21 03:09:41;;;;;;;1.50;0.30;;;15.60;91.40;;;;;;4233049;28;20152;-41
2020/12/21 03:12:03;;;;;;;0.15;0.15;;;15.50;91.40;;;;;;4232488;28;20144;-41
2020/12/21 03:14:24;;;;;;;0.00;0.00;;;15.60;91.50;;;;;;4232375;27;20051;-41
2020/12/21 03:16:44;;;;;;;0.10;0.10;;;15.50;91.50;;;;;;4232399;28;20135;-41
2020/12/21 03:19:07;;;;;;;0.00;0.00;;;15.50;91.50;;;;;;4215517;28;20135;-41
2020/12/21 03:21:27;;;;;;;0.03;0.03;;;15.50;91.60;;;;;;4225638;28;20058;-41
2020/12/21 03:23:48;;;;;;;0.00;0.00;;;15.50;92.00;;;;;;4232320;28;20056;-41
2020/12/21 03:26:09;;;;;;;1.65;1.23;;;15.40;91.70;;;;;;4232148;28;20051;-41
2020/12/21 03:28:31;;;;;;;0.00;0.00;;;15.40;91.70;;;;;;4231794;28;20083;-41
2020/12/21 03:30:52;;;;;;;0.20;0.20;;;15.40;91.70;;;;;;4232748;27;20466;-41
2020/12/21 03:33:12;;;;;;;0.45;0.45;;;15.40;91.80;;;;;;4232470;28;20134;-41
2020/12/21 03:35:33;;;;;;;0.00;0.00;;;15.40;91.80;;;;;;4232288;28;20055;-41
2020/12/21 03:37:55;;;;;;;0.52;0.52;;;15.30;91.90;;;;;;4231818;28;20055;-40
2020/12/21 03:40:16;;;;;;;0.00;0.00;;;15.40;91.80;;;;;;4232136;28;20052;-41
2020/12/21 03:42:37;;;;;;;0.00;0.00;;;15.50;91.60;;;;;;4231993;27;20043;-41
2020/12/21 03:44:59;;;;;;;0.20;0.20;;;15.70;91.30;;;;;;4232255;27;20135;-41
2020/12/21 03:47:20;;;;;;;0.40;0.40;;;15.70;91.10;;;;;;4232274;28;20055;-41
2020/12/21 03:49:40;;;;;;;0.00;0.00;;;15.80;91.00;;;;;;4231852;28;20491;-41
2020/12/21 03:52:01;;;;;;;0.13;0.13;;;15.80;90.90;;;;;;4231730;28;20062;-42
2020/12/21 03:54:22;;;;;;;1.85;1.75;;;15.70;90.90;;;;;;4231750;28;20066;-41
2020/12/21 03:56:43;;;;;;;0.00;0.00;;;15.70;90.90;;;;;;4231774;28;20128;-41
2020/12/21 03:59:03;;;;;;;0.70;0.70;;;15.70;91.00;;;;;;4231932;28;20089;-41
2020/12/21 04:01:28;;;;;;;0.32;0.32;;;15.60;91.00;;;;;;4231500;28;20048;-41
2020/12/21 04:03:49;;;;;;;0.00;0.00;;;15.60;91.00;;;;;;4231530;28;20054;-41
2020/12/21 04:06:10;;;;;;;0.22;0.22;;;15.60;91.10;;;;;;4231704;28;20497;-41
2020/12/21 04:08:30;;;;;;;0.00;0.00;;;15.60;91.10;;;;;;4231286;27;20083;-41
2020/12/21 04:10:51;;;;;;;0.10;0.10;;;15.60;91.00;;;;;;4231595;27;20551;-41
2020/12/21 04:13:12;;;;;;;0.00;0.00;;;15.70;90.90;;;;;;4231382;28;20084;-42
2020/12/21 04:15:34;;;;;;;0.00;0.00;;;15.80;90.80;;;;;;4231362;28;20089;-41
2020/12/21 04:17:56;;;;;;;0.00;0.00;;;15.90;90.50;;;;;;4230505;28;20075;-41
2020/12/21 04:20:16;;;;;;;0.10;0.10;;;16.20;90.10;;;;;;4231176;28;20044;-41
2020/12/21 04:22:37;;;;;;;;;;;16.40;89.00;;;;;;4231741;28;20072;-41
2020/12/21 04:24:59;;;;;;;0.47;0.47;;;16.50;88.20;;;;;;4231304;27;19923;-41
2020/12/21 04:27:20;;;;;;;0.30;0.30;;;16.60;87.70;;;;;;4230853;28;20071;-41
2020/12/21 04:29:41;;;;;;;0.00;0.00;;;16.60;87.40;;;;;;4231251;27;20054;-41
2020/12/21 04:32:05;;;;;;;0.00;0.00;;;16.60;87.50;;;;;;4231111;28;20058;-41
2020/12/21 04:34:26;;;;;;;0.00;0.00;;;16.50;87.50;;;;;;4231014;27;20047;-41
2020/12/21 04:36:47;;;;;;;0.00;0.00;;;16.50;87.90;;;;;;4230906;27;20134;-41
2020/12/21 04:39:08;;;;;;;0.08;0.08;;;16.40;88.10;;;;;;4231309;28;20489;-41
2020/12/21 04:41:29;;;;;;;0.05;0.05;;;16.40;88.40;;;;;;4231617;28;20051;-41
2020/12/21 04:43:50;;;;;;;0.00;0.00;;;16.40;88.40;;;;;;4230960;28;20055;-41
2020/12/21 04:46:12;;;;;;;0.35;0.35;;;16.40;88.30;;;;;;4230970;27;20497;-41
2020/12/21 04:48:38;;;;;;;0.00;0.00;;;16.40;88.30;;;;;;4230767;27;20138;-41
2020/12/21 04:51:00;;;;;;;0.10;0.10;;;16.40;88.40;;;;;;4231366;28;20498;-41
2020/12/21 04:53:21;;;;;;;0.00;0.00;;;16.30;88.50;;;;;;4230915;28;20055;-41
2020/12/21 04:55:42;;;;;;;0.00;0.00;;;16.30;88.80;;;;;;4230825;28;20116;-41
2020/12/21 04:58:05;;;;;;;0.32;0.32;;;16.20;89.00;;;;;;4230431;28;20112;-41
2020/12/21 05:00:27;;;;;;;0.00;0.00;;;16.10;89.30;;;;;;4230622;28;20083;-40
2020/12/21 05:02:48;;;;;;;0.00;0.00;;;16.10;89.60;;;;;;4230526;28;20051;-41
2020/12/21 05:05:09;;;;;;;0.00;0.00;;;16.10;89.70;;;;;;4230766;28;20056;-41
2020/12/21 05:07:31;;;;;;;0.00;0.00;;;16.30;88.60;;;;;;4230911;28;20525;-40
2020/12/21 05:09:52;;;;;;;0.05;0.05;;;16.60;87.50;;;;;;4231120;28;20055;-41
2020/12/21 05:12:16;;;;;;;0.38;0.38;;;16.70;86.80;;;;;;4230767;28;20565;-41
2020/12/21 05:14:38;;;;;;;0.00;0.00;;;16.70;86.40;;;;;;4230515;28;20097;-40
2020/12/21 05:17:11;;;;;;;0.20;0.20;;;16.70;86.30;;;;;;4230196;28;20561;-40
2020/12/21 05:19:31;;;;;;;0.20;0.20;;;16.60;86.50;;;;;;4230431;28;20051;-41
2020/12/21 05:21:55;;;;;;;0.00;0.00;;;16.60;86.70;;;;;;4230477;28;20059;-40
2020/12/21 05:24:21;;;;;;;0.90;0.73;;;16.50;86.90;;;;;;4230639;27;20051;-41
2020/12/21 05:26:45;;;;;;;0.10;0.10;;;16.40;87.40;;;;;;4230588;28;20047;-41
2020/12/21 05:29:06;;;;;;;0.00;0.00;;;16.30;87.80;;;;;;4229521;28;20051;-40
2020/12/21 05:31:28;;;;;;;0.00;0.00;;;16.30;88.20;;;;;;4230135;27;20058;-41
2020/12/21 05:33:49;;;;;;;0.20;0.20;;;16.20;88.60;;;;;;4230176;28;20098;-41
2020/12/21 05:36:11;;;;;;;;;;;16.10;88.90;;;;;;4230564;28;20678;-42
2020/12/21 05:38:32;;;;;;;0.00;0.00;;;16.20;88.80;;;;;;4213209;28;19960;-41
2020/12/21 05:40:55;;;;;;;0.00;0.00;;;16.30;88.20;;;;;;4213199;28;20048;-40
2020/12/21 05:43:26;;;;;;;0.00;0.00;;;16.30;88.00;;;;;;4213468;28;20058;-40
2020/12/21 05:45:47;;;;;;;0.00;0.00;;;16.40;87.90;;;;;;4224103;28;20573;-41
2020/12/21 05:48:08;;;;;;;0.00;0.00;;;16.30;87.80;;;;;;4229977;28;20083;-40
2020/12/21 05:50:32;;;;;;;0.10;0.10;;;16.40;87.50;;;;;;4230066;28;20047;-40
2020/12/21 05:52:54;;;;;;;0.00;0.00;;;16.60;86.80;;;;;;4229812;28;20056;-40
2020/12/21 05:55:17;;;;;;;0.10;0.10;;;16.70;86.00;;;;;;4228500;28;20048;-41
2020/12/21 05:57:41;;;;;;;0.00;0.00;;;16.70;85.80;;;;;;4229892;28;20070;-40
2020/12/21 06:00:05;;;;;;;0.00;0.00;;;16.70;85.90;;;;;;4230002;28;20055;-40
2020/12/21 06:02:30;;;;;;;0.47;0.47;;;16.60;85.90;;;;;;4229669;28;20052;-40
2020/12/21 06:04:57;;;;;;;0.10;0.10;;;16.60;86.10;;;;;;4229705;27;20055;-42
2020/12/21 06:07:22;;;;;;;0.17;0.17;;;16.50;86.40;;;;;;4229595;28;20075;-41
2020/12/21 06:09:48;;;;;;;0.00;0.00;;;16.40;86.80;;;;;;4229816;28;20063;-41
2020/12/21 06:12:09;;;;;;;0.00;0.00;;;16.40;87.20;;;;;;4229766;28;20047;-41
2020/12/21 06:14:34;;;;;;;0.00;0.00;;;16.30;87.50;;;;;;4229671;28;20494;-40
2020/12/21 06:16:56;;;;;;;0.32;0.32;;;16.40;87.30;;;;;;4229295;28;20043;-41
2020/12/21 06:19:24;;;;;;;0.10;0.10;;;16.40;87.20;;;;;;4229550;28;20175;-40
2020/12/21 06:21:51;;;;;;;0.32;0.32;;;16.40;87.20;;;;;;4229712;28;20425;-40
2020/12/21 06:24:16;;;;;;;0.80;0.80;;;16.40;87.40;;;;;;4229522;28;20074;-41
2020/12/21 06:26:38;;;;;;;0.00;0.00;;;16.30;87.70;;;;;;4229446;28;20074;-43
2020/12/21 06:29:00;;;;;;;0.10;0.10;;;16.30;87.80;;;;;;4229377;28;20051;-41
2020/12/21 06:31:22;;;;;;;0.38;0.38;;;16.40;87.60;;;;;;4229703;28;20058;-41
2020/12/21 06:33:45;;;;;;;0.52;0.52;;;16.40;87.60;;;;;;4229600;28;20051;-40
2020/12/21 06:36:06;;;;;;;0.55;0.55;;;16.40;87.80;;;;;;4229286;27;20124;-42
2020/12/21 06:38:26;;;;;;;0.20;0.20;;;16.30;88.40;;;;;;4228862;28;20059;-42
2020/12/21 06:40:47;;;;;;;0.00;0.00;;;16.30;88.60;;;;;;4229355;28;20812;-42
2020/12/21 06:43:10;;;;;;;0.00;0.00;;;16.30;88.80;;;;;;4229814;28;20047;-42
2020/12/21 06:45:34;;;;;;;0.10;0.10;;;16.20;89.00;;;;;;4227879;28;20053;-41
2020/12/21 06:47:56;;;;;;;0.25;0.25;;;16.10;89.30;;;;;;4229330;28;20056;-41
2020/12/21 06:50:18;;;;;;;0.00;0.00;;;16.30;88.80;;;;;;4229566;28;20055;-41
2020/12/21 06:52:41;;;;;;;0.38;0.38;;;16.40;87.90;;;;;;4229149;28;20052;-41
2020/12/21 06:55:02;;;;;;;0.00;0.00;;;16.50;87.30;;;;;;4229100;28;20122;-42
2020/12/21 06:57:23;;;;;;;0.20;0.20;;;16.50;87.10;;;;;;4229079;28;20082;-42
2020/12/21 06:59:56;;;;;;;0.00;0.00;;;16.50;87.10;;;;;;4229039;28;20051;-41
2020/12/21 07:02:19;;;;;;;0.00;0.00;;;16.60;86.80;;;;;;4229210;28;20081;-41
2020/12/21 07:04:41;;;;;;;0.00;0.00;;;16.60;86.60;;;;;;4229191;28;20055;-41
2020/12/21 07:07:03;;;;;;;0.00;0.00;;;16.60;86.60;;;;;;4229213;28;20557;-41
2020/12/21 07:09:26;;;;;;;0.30;0.30;;;16.60;86.80;;;;;;4229073;28;20060;-40
2020/12/21 07:11:52;;;;;;;0.00;0.00;;;16.60;86.60;;;;;;4229268;28;20059;-41
2020/12/21 07:14:13;;;;;;;0.00;0.00;;;16.60;86.50;;;;;;4229061;28;20657;-41
2020/12/21 07:16:35;;;;;;;0.45;0.45;;;16.60;86.50;;;;;;4229174;28;20055;-41
2020/12/21 07:18:56;;;;;;;0.10;0.10;;;16.60;86.60;;;;;;4229098;28;20077;-41
2020/12/21 07:21:18;;;;;;;0.00;0.00;;;16.50;86.80;;;;;;4229157;28;20650;-41
2020/12/21 07:23:40;;;;;;;0.70;0.47;;;16.50;86.10;;;;;;4229078;28;20532;-41
2020/12/21 07:26:01;;;;;;;0.35;0.35;;;16.50;85.30;;;;;;4229019;28;20055;-41
2020/12/21 07:28:23;;;;;;;0.52;0.52;;;16.50;85.00;;;;;;4228912;28;20059;-41
2020/12/21 07:30:43;;;;;;;8.30;1.52;;;16.50;85.00;;;;;;4228980;28;20101;-40
2020/12/21 07:33:10;;;;;;;0.00;0.00;;;16.50;84.40;;;;;;4228908;28;20056;-43
2020/12/21 07:35:32;;;;;;;0.00;0.00;;;16.60;83.60;;;;;;4228849;28;20048;-41
2020/12/21 07:37:54;;;;;;;0.55;0.55;;;16.60;82.90;;;;;;4228772;28;20116;-41
2020/12/21 07:40:21;;;;;;;0.10;0.10;;;16.60;82.80;;;;;;4228917;28;20480;-41
2020/12/21 07:42:43;;;;;;;0.00;0.00;;;16.60;83.30;;;;;;4228720;28;20824;-41
2020/12/21 07:45:07;;;;;;;0.15;0.15;;;16.50;83.00;;;;;;4228111;28;20058;-41
2020/12/21 07:47:30;;;;;;;1.30;1.20;;;16.50;83.10;;;;;;4226853;28;20052;-41
2020/12/21 07:49:51;;;;;;;0.00;0.00;;;16.50;82.60;;;;;;4228190;28;20421;-40
2020/12/21 07:52:15;;;;;;;0.43;0.43;;;16.50;82.10;;;;;;4229527;28;20058;-40
2020/12/21 07:54:40;;;;;;;4.53;1.35;;;16.40;81.70;;;;;;4230255;28;20054;-41
2020/12/21 07:57:02;;;;;;;0.77;0.63;;;16.40;81.80;;;;;;4230596;28;20127;-40
2020/12/21 07:59:23;;;;;;;0.28;0.28;;;16.40;81.50;;;;;;4231218;28;20101;-40
2020/12/21 08:01:46;;;;;;;0.15;0.15;;;16.40;80.70;;;;;;4227120;28;20062;-41
2020/12/21 08:04:14;;;;;;;0.25;0.25;;;16.50;80.10;;;;;;4220999;27;20485;-41
2020/12/21 08:06:35;;;;;;;0.22;0.22;;;16.40;79.50;;;;;;4215009;28;20052;-41
2020/12/21 08:08:56;;;;;;;0.00;0.00;;;16.40;79.20;;;;;;4231303;28;20087;-41
2020/12/21 08:11:20;;;;;;;0.05;0.05;;;16.30;79.00;;;;;;4231974;28;20051;-41
2020/12/21 08:13:46;;;;;;;4.13;2.05;;;16.30;78.60;;;;;;4230936;28;20051;-42
2020/12/21 08:16:08;;;;;;;0.00;0.00;;;16.40;77.70;;;;;;4231318;28;20412;-41
2020/12/21 08:18:29;;;;;;;0.40;0.22;;;16.50;76.80;;;;;;4231278;28;20044;-40
2020/12/21 08:20:50;;;;;;;2.00;1.55;;;16.60;76.80;;;;;;4224224;28;20052;-41
2020/12/21 08:23:11;;;;;;;0.05;0.05;;;16.60;75.60;;;;;;4231160;28;20052;-42
2020/12/21 08:25:32;;;;;;;5.25;2.35;;;16.70;75.60;;;;;;4231586;28;20124;-41
2020/12/21 08:27:54;;;;;;;0.10;0.10;;;16.60;75.70;;;;;;4231389;28;20113;-41
2020/12/21 08:30:18;;;;;;;0.20;0.20;;;16.60;76.10;;;;;;4231251;27;20084;-42
2020/12/21 08:32:39;;;;;;;0.00;0.00;;;16.50;76.80;;;;;;4231051;28;20130;-41
2020/12/21 08:35:01;;;;;;;0.73;0.73;;;16.40;77.40;;;;;;4230908;28;20051;-41
2020/12/21 08:37:24;;;;;;;0.55;0.55;;;16.30;78.10;;;;;;4231356;28;20047;-41
2020/12/21 08:39:47;;;;;;;0.20;0.20;;;16.30;78.80;;;;;;4231082;28;20125;-41
2020/12/21 08:42:08;;;;;;;0.25;0.25;;;16.40;79.70;;;;;;4231432;28;20485;-41
2020/12/21 08:44:30;;;;;;;0.00;0.00;;;16.50;78.00;;;;;;4231284;28;20044;-41
2020/12/21 08:46:52;;;;;;;0.57;0.57;;;16.60;77.40;;;;;;4231304;28;20048;-41
2020/12/21 08:49:14;;;;;;;0.00;0.00;;;16.70;76.80;;;;;;4230936;28;20055;-41
2020/12/21 08:51:35;;;;;;;0.00;0.00;;;16.70;76.80;;;;;;4231218;28;20150;-41
2020/12/21 08:53:57;;;;;;;0.00;0.00;;;16.70;77.00;;;;;;4230938;28;20617;-41
2020/12/21 08:56:18;;;;;;;0.28;0.28;;;16.70;77.10;;;;;;4231121;27;20090;-46
2020/12/21 08:58:39;;;;;;;0.05;0.05;;;16.80;77.00;;;;;;4230904;28;20058;-43
2020/12/21 09:01:05;;;;;;;0.63;0.63;;;16.80;76.70;;;;;;4230832;28;20063;-41
2020/12/21 09:03:26;;;;;;;0.30;0.30;;;16.80;76.60;;;;;;4230856;28;20059;-42
2020/12/21 09:05:46;;;;;;;0.98;0.57;;;16.80;76.70;;;;;;4231013;27;20047;-41
2020/12/21 09:08:07;;;;;;;0.52;0.40;;;16.80;77.10;;;;;;4230689;28;20414;-41
2020/12/21 09:10:28;;;;;;;0.00;0.00;;;16.60;77.50;;;;;;4230769;28;20414;-41
2020/12/21 09:12:54;;;;;;;0.03;0.03;;;16.70;77.60;;;;;;4230799;27;20098;-41
2020/12/21 09:15:15;;;;;;;3.30;0.82;;;16.90;76.80;;;;;;4230796;28;20104;-41
2020/12/21 09:17:40;;;;;;;2.05;0.98;;;17.10;75.80;;;;;;4230879;28;20565;-41
2020/12/21 09:20:01;;;;;;;0.03;0.03;;;17.10;75.20;;;;;;4228748;28;20542;-41
2020/12/21 09:22:22;;;;;;;0.00;0.00;;;17.20;75.20;;;;;;4230805;28;20100;-41
2020/12/21 09:24:43;;;;;;;0.00;0.00;;;17.10;75.60;;;;;;4230517;28;20054;-42
2020/12/21 09:27:04;;;;;;;1.42;0.80;;;17.00;75.90;;;;;;4230720;28;20134;-41
2020/12/21 09:29:27;;;;;;;0.10;0.10;;;16.90;76.20;;;;;;4229114;28;20063;-41
2020/12/21 09:31:47;;;;;;;0.15;0.15;;;16.80;76.70;;;;;;4230840;28;20436;-41
2020/12/21 09:34:09;;;;;;;0.43;0.40;;;16.70;77.20;;;;;;4230708;28;20090;-41
2020/12/21 09:36:32;;;;;;;0.20;0.20;;;16.70;77.70;;;;;;4230437;28;20058;-41
2020/12/21 09:39:03;;;;;;;3.53;1.77;;;16.70;77.70;;;;;;4230253;28;20048;-43
2020/12/21 09:41:25;;;;;;;0.30;0.30;;;16.70;78.00;;;;;;4230379;28;20498;-42
2020/12/21 09:43:47;;;;;;;0.00;0.00;;;16.60;78.30;;;;;;4230302;28;20752;-42
2020/12/21 09:46:08;;;;;;;0.10;0.10;;;16.50;78.70;;;;;;4230344;28;20502;-42
2020/12/21 09:48:30;;;;;;;;;;;16.40;79.10;;;;;;4230583;28;20048;-44
2020/12/21 09:50:52;;;;;;;0.30;0.20;;;16.30;79.40;;;;;;4230132;28;19927;-42
2020/12/21 09:53:13;;;;;;;0.00;0.00;;;16.30;79.90;;;;;;4229965;28;20055;-45
2020/12/21 09:55:34;;;;;;;0.00;0.00;;;16.30;79.80;;;;;;4230301;28;20052;-42
2020/12/21 09:57:59;;;;;;;0.00;0.00;;;16.40;79.20;;;;;;4229857;28;20663;-41
2020/12/21 10:00:20;;;;;;;0.00;0.00;;;16.50;78.80;;;;;;4229879;28;20051;-41
2020/12/21 10:02:43;;;;;;;0.00;0.00;;;16.70;78.00;;;;;;4230060;28;20047;-41
2020/12/21 10:05:04;;;;;;;0.63;0.63;;;16.90;76.80;;;;;;4230041;28;20043;-41
2020/12/21 10:07:26;;;;;;;0.25;0.25;;;17.10;76.00;;;;;;4229819;28;20504;-42
2020/12/21 10:09:47;;;;;;;0.80;0.80;;;17.10;75.60;;;;;;4229746;28;20105;-42
2020/12/21 10:12:08;;;;;;;1.80;1.65;;;17.10;75.50;;;;;;4229860;28;20442;-42
2020/12/21 10:14:29;;;;;;;0.05;0.05;;;17.00;75.70;;;;;;4229832;28;20082;-41
2020/12/21 10:16:52;;;;;;;0.90;0.90;;;16.90;76.10;;;;;;4229860;28;20059;-41
2020/12/21 10:19:13;;;;;;;5.15;0.70;;;17.00;76.20;;;;;;4229676;28;20100;-41
2020/12/21 10:21:34;;;;;;;;;;;17.10;75.80;;;;;;4230147;28;20126;-42
2020/12/21 10:23:57;;;;;;;0.00;0.00;;;17.10;75.30;;;;;;4229754;28;20348;-41
2020/12/21 10:26:18;;;;;;;0.20;0.20;;;17.10;75.30;;;;;;4229629;28;20052;-41
2020/12/21 10:28:39;;;;;;;1.02;0.55;;;17.10;75.60;;;;;;4229549;28;20056;-41
2020/12/21 10:31:01;;;;;;;0.80;0.80;;;16.90;75.80;;;;;;4229306;28;20046;-41
2020/12/21 10:33:24;;;;;;;0.20;0.20;;;16.90;76.20;;;;;;4228646;28;20074;-41
2020/12/21 10:35:48;;;;;;;0.15;0.15;;;16.80;76.60;;;;;;4229676;28;20071;-42
2020/12/21 10:38:08;;;;;;;0.20;0.20;;;16.70;77.10;;;;;;4228261;28;20131;-41
2020/12/21 10:40:31;;;;;;;0.00;0.00;;;16.70;77.40;;;;;;4229589;28;20105;-44
2020/12/21 10:42:52;;;;;;;0.22;0.22;;;16.70;77.00;;;;;;4229240;28;20047;-42
2020/12/21 10:45:13;;;;;;;0.10;0.10;;;16.80;77.00;;;;;;4212656;28;20052;-42
2020/12/21 10:47:34;;;;;;;0.00;0.00;;;16.70;77.00;;;;;;4224842;28;20047;-41
2020/12/21 10:49:55;;;;;;;0.10;0.10;;;16.60;77.40;;;;;;4229329;28;20576;-42
2020/12/21 10:52:19;;;;;;;0.00;0.00;;;16.60;77.80;;;;;;4229376;28;20127;-41
2020/12/21 10:54:40;;;;;;;0.10;0.10;;;16.60;77.80;;;;;;4212634;28;20486;-41
2020/12/21 10:57:04;;;;;;;0.03;0.03;;;16.80;76.70;;;;;;4212588;28;20044;-41
2020/12/21 10:59:25;;;;;;;0.00;0.00;;;17.10;75.60;;;;;;4212625;28;20052;-41
2020/12/21 11:01:48;;;;;;;0.10;0.10;;;17.20;75.00;;;;;;4219134;28;20475;-41
2020/12/21 11:04:09;;;;;;;0.00;0.00;;;17.20;74.90;;;;;;4229318;28;20047;-41
2020/12/21 11:06:30;;;;;;;0.00;0.00;;;17.20;74.60;;;;;;4229467;28;20047;-41
2020/12/21 11:08:52;;;;;;;0.00;0.00;;;17.20;74.60;;;;;;4228901;28;20113;-41
2020/12/21 11:11:13;;;;;;;0.38;0.38;;;17.20;74.60;;;;;;4229214;28;20497;-42
2020/12/21 11:13:35;;;;;;;0.22;0.22;;;17.10;74.90;;;;;;4229267;28;20102;-41
2020/12/21 11:15:57;;;;;;;0.28;0.28;;;17.00;75.30;;;;;;4228581;28;20434;-41
2020/12/21 11:18:18;;;;;;;0.00;0.00;;;16.90;75.80;;;;;;4228866;28;20508;-42
2020/12/21 11:20:39;;;;;;;0.00;0.00;;;16.80;76.10;;;;;;4228125;28;20051;-42
2020/12/21 11:23:00;;;;;;;0.32;0.32;;;16.90;76.00;;;;;;4228612;28;20767;-42
2020/12/21 11:25:21;;;;;;;0.05;0.05;;;16.90;76.80;;;;;;4228983;28;20540;-41
2020/12/21 11:27:42;;;;;;;0.10;0.10;;;16.90;75.90;;;;;;4223954;28;20101;-42
2020/12/21 11:30:05;;;;;;;0.00;0.00;;;16.80;76.40;;;;;;4215787;28;20464;-41
2020/12/21 11:32:26;;;;;;;0.00;0.00;;;16.80;76.30;;;;;;4215384;28;20070;-41
2020/12/21 11:34:46;;;;;;;0.00;0.00;;;16.90;76.20;;;;;;4218391;28;20047;-41
2020/12/21 11:37:07;;;;;;;5.82;1.42;;;16.90;76.10;;;;;;4232505;28;20497;-42
2020/12/21 11:39:28;;;;;;;0.17;0.17;;;16.90;76.30;;;;;;4215099;28;20048;-41
2020/12/21 11:41:50;;;;;;;0.10;0.10;;;16.80;76.60;;;;;;4222746;28;20567;-41
2020/12/21 11:44:12;;;;;;;0.00;0.00;;;16.80;76.80;;;;;;4225261;28;20059;-41
2020/12/21 11:46:36;;;;;;;0.00;0.00;;;16.90;76.40;;;;;;4215528;28;20491;-41
2020/12/21 11:49:00;;;;;;;0.08;0.08;;;17.00;75.80;;;;;;4231861;28;20479;-41
2020/12/21 11:51:21;;;;;;;0.40;0.40;;;17.00;75.40;;;;;;4231503;28;20054;-40
2020/12/21 11:53:42;;;;;;;0.03;0.03;;;17.00;75.60;;;;;;4232170;28;20484;-42
2020/12/21 11:56:03;;;;;;;0.10;0.10;;;16.90;75.80;;;;;;4231789;28;20062;-42
2020/12/21 11:58:24;;;;;;;0.00;0.00;;;16.80;76.30;;;;;;4231565;28;20047;-41
2020/12/21 12:00:45;;;;;;;0.00;0.00;;;16.70;76.70;;;;;;4230877;28;20067;-42
2020/12/21 12:03:07;;;;;;;0.00;0.00;;;16.70;77.10;;;;;;4231553;28;20078;-44
2020/12/21 12:05:28;;;;;;;0.05;0.05;;;16.60;77.50;;;;;;4214847;28;20054;-42
2020/12/21 12:07:49;;;;;;;10.40;1.08;;;16.60;78.00;;;;;;4219330;28;20050;-42
2020/12/21 12:10:10;;;;;;;0.00;0.00;;;16.50;78.30;;;;;;4231619;28;20097;-47
2020/12/21 12:12:33;;;;;;;0.65;0.65;;;16.40;78.80;;;;;;4232012;28;20051;-42
2020/12/21 12:14:57;;;;;;;0.00;0.00;;;16.30;79.20;;;;;;4226929;28;20504;-41
2020/12/21 12:17:18;;;;;;;0.10;0.10;;;16.20;79.70;;;;;;4224028;28;20048;-41
2020/12/21 12:19:39;;;;;;;0.00;0.00;;;16.10;80.10;;;;;;4214767;28;20117;-42